sensor_id;sensor_type;location;lat;lon;timestamp;pressure;altitude;pressure_sealevel;temperature;humidity
27805;BME280;15183;51.350;11.102;2023-04-19T00:02:18;101007.25;;;13.69;58.98
27805;BME280;15183;51.350;11.102;2023-04-19T00:04:45;101062.22;;;14.14;58.46
27805;BME280;15183;51.350;11.102;2023-04-19T00:07:12;101066.06;;;14.18;58.92
27805;BME280;15183;51.350;11.102;2023-04-19T00:09:39;101053.63;;;14.12;58.24
27805;BME280;15183;51.350;11.102;2023-04-19T00:12:05;101037.09;;;14.03;58.52
27805;BME280;15183;51.350;11.102;2023-04-19T00:14:32;101063.56;;;14.23;58.76
27805;BME280;15183;51.350;11.102;2023-04-19T00:16:58;100966.50;;;13.68;58.92
27805;BME280;15183;51.350;11.102;2023-04-19T00:19:24;101048.75;;;14.27;59.08
27805;BME280;15183;51.350;11.102;2023-04-19T00:21:51;101057.16;;;14.31;58.48
27805;BME280;15183;51.350;11.102;2023-04-19T00:24:17;100982.50;;;13.87;58.39
27805;BME280;15183;51.350;11.102;2023-04-19T00:26:44;101058.69;;;14.39;58.47
27805;BME280;15183;51.350;11.102;2023-04-19T00:29:10;101029.94;;;14.22;57.79
27805;BME280;15183;51.350;11.102;2023-04-19T00:31:36;101050.19;;;14.30;57.21
27805;BME280;15183;51.350;11.102;2023-04-19T00:34:04;101052.47;;;14.26;57.46
27805;BME280;15183;51.350;11.102;2023-04-19T00:36:31;101023.13;;;14.08;57.69
27805;BME280;15183;51.350;11.102;2023-04-19T00:38:58;101042.69;;;14.20;57.84
27805;BME280;15183;51.350;11.102;2023-04-19T00:41:24;101010.50;;;13.96;57.82
27805;BME280;15183;51.350;11.102;2023-04-19T00:43:50;101037.41;;;14.13;57.48
27805;BME280;15183;51.350;11.102;2023-04-19T00:46:17;101036.44;;;14.08;57.82
27805;BME280;15183;51.350;11.102;2023-04-19T00:48:43;101045.84;;;14.10;57.67
27805;BME280;15183;51.350;11.102;2023-04-19T00:51:10;101033.78;;;14.08;57.75
27805;BME280;15183;51.350;11.102;2023-04-19T00:53:37;101016.09;;;13.88;57.30
27805;BME280;15183;51.350;11.102;2023-04-19T00:56:05;101025.44;;;13.97;57.45
27805;BME280;15183;51.350;11.102;2023-04-19T00:58:33;101048.50;;;14.10;57.60
27805;BME280;15183;51.350;11.102;2023-04-19T01:00:59;101055.25;;;14.13;57.63
27805;BME280;15183;51.350;11.102;2023-04-19T01:03:26;101024.25;;;13.93;57.68
27805;BME280;15183;51.350;11.102;2023-04-19T01:05:52;101037.28;;;14.01;57.46
27805;BME280;15183;51.350;11.102;2023-04-19T01:08:19;101035.66;;;14.00;57.57
27805;BME280;15183;51.350;11.102;2023-04-19T01:10:45;101040.34;;;14.05;57.64
27805;BME280;15183;51.350;11.102;2023-04-19T01:13:11;101034.31;;;13.91;57.44
27805;BME280;15183;51.350;11.102;2023-04-19T01:15:38;101041.44;;;13.97;57.63
27805;BME280;15183;51.350;11.102;2023-04-19T01:18:04;101049.00;;;14.00;57.37
27805;BME280;15183;51.350;11.102;2023-04-19T01:20:31;101051.28;;;13.97;57.57
27805;BME280;15183;51.350;11.102;2023-04-19T01:22:58;101044.38;;;13.89;57.09
27805;BME280;15183;51.350;11.102;2023-04-19T01:25:25;101033.38;;;13.85;57.43
27805;BME280;15183;51.350;11.102;2023-04-19T01:27:52;101023.78;;;13.78;57.26
27805;BME280;15183;51.350;11.102;2023-04-19T01:30:18;101016.66;;;13.71;57.30
27805;BME280;15183;51.350;11.102;2023-04-19T01:32:45;101032.22;;;13.74;57.42
27805;BME280;15183;51.350;11.102;2023-04-19T01:35:11;101013.44;;;13.63;57.28
27805;BME280;15183;51.350;11.102;2023-04-19T01:37:37;101025.69;;;13.70;57.36
27805;BME280;15183;51.350;11.102;2023-04-19T01:40:05;101025.88;;;13.69;57.16
27805;BME280;15183;51.350;11.102;2023-04-19T01:42:31;101032.47;;;13.66;57.29
27805;BME280;15183;51.350;11.102;2023-04-19T01:44:58;101015.81;;;13.45;57.01
27805;BME280;15183;51.350;11.102;2023-04-19T01:47:24;101023.81;;;13.45;57.28
27805;BME280;15183;51.350;11.102;2023-04-19T01:49:51;101040.81;;;13.44;57.21
27805;BME280;15183;51.350;11.102;2023-04-19T01:52:17;101007.59;;;13.15;57.26
27805;BME280;15183;51.350;11.102;2023-04-19T01:54:44;100955.63;;;12.73;57.70
27805;BME280;15183;51.350;11.102;2023-04-19T01:57:10;101023.56;;;13.15;57.98
27805;BME280;15183;51.350;11.102;2023-04-19T01:59:36;101034.41;;;13.13;57.58
27805;BME280;15183;51.350;11.102;2023-04-19T02:02:06;101018.53;;;12.93;57.56
27805;BME280;15183;51.350;11.102;2023-04-19T02:04:34;101023.25;;;12.91;57.97
27805;BME280;15183;51.350;11.102;2023-04-19T02:07:01;100990.06;;;12.48;57.27
27805;BME280;15183;51.350;11.102;2023-04-19T02:09:27;101013.97;;;12.48;57.74
27805;BME280;15183;51.350;11.102;2023-04-19T02:11:53;101029.97;;;12.41;57.46
27805;BME280;15183;51.350;11.102;2023-04-19T02:14:20;101005.06;;;12.09;57.64
27805;BME280;15183;51.350;11.102;2023-04-19T02:16:47;101009.75;;;11.93;57.55
27805;BME280;15183;51.350;11.102;2023-04-19T02:19:14;101014.84;;;11.81;57.68
27805;BME280;15183;51.350;11.102;2023-04-19T02:21:40;101032.84;;;11.79;57.54
27805;BME280;15183;51.350;11.102;2023-04-19T02:24:06;101025.28;;;11.63;57.45
27805;BME280;15183;51.350;11.102;2023-04-19T02:26:33;101029.94;;;11.47;57.10
27805;BME280;15183;51.350;11.102;2023-04-19T02:28:59;101029.69;;;11.28;56.91
27805;BME280;15183;51.350;11.102;2023-04-19T02:31:26;101004.47;;;10.91;56.97
27805;BME280;15183;51.350;11.102;2023-04-19T02:33:52;101029.97;;;10.85;57.19
27805;BME280;15183;51.350;11.102;2023-04-19T02:36:18;101030.44;;;10.60;56.84
27805;BME280;15183;51.350;11.102;2023-04-19T02:38:45;101052.63;;;10.52;57.05
27805;BME280;15183;51.350;11.102;2023-04-19T02:41:11;101054.09;;;10.33;57.19
27805;BME280;15183;51.350;11.102;2023-04-19T02:43:38;101041.09;;;10.10;57.16
27805;BME280;15183;51.350;11.102;2023-04-19T02:46:04;101043.44;;;9.98;57.36
27805;BME280;15183;51.350;11.102;2023-04-19T02:48:31;101029.78;;;9.73;57.34
27805;BME280;15183;51.350;11.102;2023-04-19T02:50:58;101059.53;;;9.75;57.36
27805;BME280;15183;51.350;11.102;2023-04-19T02:53:24;101039.50;;;9.65;57.75
27805;BME280;15183;51.350;11.102;2023-04-19T02:55:51;101059.22;;;9.63;57.64
27805;BME280;15183;51.350;11.102;2023-04-19T02:58:17;101055.25;;;9.52;57.91
27805;BME280;15183;51.350;11.102;2023-04-19T03:00:43;101026.13;;;9.30;57.97
27805;BME280;15183;51.350;11.102;2023-04-19T03:03:10;101062.28;;;9.45;58.08
27805;BME280;15183;51.350;11.102;2023-04-19T03:05:36;101070.84;;;9.47;58.25
27805;BME280;15183;51.350;11.102;2023-04-19T03:08:03;101089.38;;;9.47;58.36
27805;BME280;15183;51.350;11.102;2023-04-19T03:10:29;101080.00;;;9.44;58.29
27805;BME280;15183;51.350;11.102;2023-04-19T03:12:56;101068.44;;;9.30;58.87
27805;BME280;15183;51.350;11.102;2023-04-19T03:15:22;101077.53;;;9.43;58.07
27805;BME280;15183;51.350;11.102;2023-04-19T03:17:49;101042.63;;;9.32;58.35
27805;BME280;15183;51.350;11.102;2023-04-19T03:20:15;101057.16;;;9.58;58.60
27805;BME280;15183;51.350;11.102;2023-04-19T03:22:42;101055.13;;;9.82;58.72
27805;BME280;15183;51.350;11.102;2023-04-19T03:25:08;101027.00;;;9.81;58.81
27805;BME280;15183;51.350;11.102;2023-04-19T03:27:37;101044.59;;;10.17;58.56
27805;BME280;15183;51.350;11.102;2023-04-19T03:30:05;101047.56;;;10.29;58.46
27805;BME280;15183;51.350;11.102;2023-04-19T03:32:32;101049.88;;;10.39;58.33
27805;BME280;15183;51.350;11.102;2023-04-19T03:34:58;101038.06;;;10.41;58.52
27805;BME280;15183;51.350;11.102;2023-04-19T03:37:25;101042.88;;;10.60;58.58
27805;BME280;15183;51.350;11.102;2023-04-19T03:39:51;100999.69;;;10.31;58.80
27805;BME280;15183;51.350;11.102;2023-04-19T03:42:17;101037.34;;;10.54;58.90
27805;BME280;15183;51.350;11.102;2023-04-19T03:44:44;100983.69;;;10.17;58.86
27805;BME280;15183;51.350;11.102;2023-04-19T03:47:10;101010.78;;;10.41;58.83
27805;BME280;15183;51.350;11.102;2023-04-19T03:49:37;100969.84;;;10.15;58.83
27805;BME280;15183;51.350;11.102;2023-04-19T03:52:03;101044.28;;;10.55;58.50
27805;BME280;15183;51.350;11.102;2023-04-19T03:54:30;101029.13;;;10.42;58.38
27805;BME280;15183;51.350;11.102;2023-04-19T03:56:56;101011.88;;;10.25;58.21
27805;BME280;15183;51.350;11.102;2023-04-19T03:59:22;101032.28;;;10.31;58.11
27805;BME280;15183;51.350;11.102;2023-04-19T04:01:49;101022.91;;;10.28;58.52
27805;BME280;15183;51.350;11.102;2023-04-19T04:04:15;101031.72;;;10.36;58.53
27805;BME280;15183;51.350;11.102;2023-04-19T04:06:42;101008.25;;;10.33;58.98
27805;BME280;15183;51.350;11.102;2023-04-19T04:09:08;101022.53;;;10.38;58.81
27805;BME280;15183;51.350;11.102;2023-04-19T04:11:35;100966.72;;;10.05;58.56
27805;BME280;15183;51.350;11.102;2023-04-19T04:14:03;101032.50;;;10.30;58.41
27805;BME280;15183;51.350;11.102;2023-04-19T04:16:29;101026.84;;;10.11;58.22
27805;BME280;15183;51.350;11.102;2023-04-19T04:18:55;101031.13;;;10.12;58.46
27805;BME280;15183;51.350;11.102;2023-04-19T04:21:22;101008.38;;;9.89;57.81
27805;BME280;15183;51.350;11.102;2023-04-19T04:23:49;101007.13;;;9.85;57.95
27805;BME280;15183;51.350;11.102;2023-04-19T04:26:17;101026.13;;;9.95;57.87
27805;BME280;15183;51.350;11.102;2023-04-19T04:28:45;101038.13;;;9.91;57.34
27805;BME280;15183;51.350;11.102;2023-04-19T04:31:11;100993.19;;;9.54;57.15
27805;BME280;15183;51.350;11.102;2023-04-19T04:33:38;100997.78;;;9.46;57.05
27805;BME280;15183;51.350;11.102;2023-04-19T04:36:05;101013.34;;;9.55;57.19
27805;BME280;15183;51.350;11.102;2023-04-19T04:38:31;101014.81;;;9.58;57.44
27805;BME280;15183;51.350;11.102;2023-04-19T04:40:57;101031.00;;;9.70;57.37
27805;BME280;15183;51.350;11.102;2023-04-19T04:43:25;101031.63;;;9.72;57.39
27805;BME280;15183;51.350;11.102;2023-04-19T04:45:54;101021.22;;;9.70;57.34
27805;BME280;15183;51.350;11.102;2023-04-19T04:48:23;101016.31;;;9.67;56.90
27805;BME280;15183;51.350;11.102;2023-04-19T04:50:49;101030.28;;;9.83;57.29
27805;BME280;15183;51.350;11.102;2023-04-19T04:53:15;101022.09;;;9.78;56.88
27805;BME280;15183;51.350;11.102;2023-04-19T04:55:42;101020.34;;;9.85;56.92
27805;BME280;15183;51.350;11.102;2023-04-19T04:58:08;101000.31;;;9.76;57.12
27805;BME280;15183;51.350;11.102;2023-04-19T05:00:35;100987.75;;;9.84;57.37
27805;BME280;15183;51.350;11.102;2023-04-19T05:03:01;100990.53;;;10.05;57.54
27805;BME280;15183;51.350;11.102;2023-04-19T05:05:28;101018.25;;;10.37;57.68
27805;BME280;15183;51.350;11.102;2023-04-19T05:07:54;100996.25;;;10.37;57.42
27805;BME280;15183;51.350;11.102;2023-04-19T05:10:21;101001.81;;;10.42;56.95
27805;BME280;15183;51.350;11.102;2023-04-19T05:12:47;101013.88;;;10.51;56.37
27805;BME280;15183;51.350;11.102;2023-04-19T05:15:14;101005.31;;;10.42;56.24
27805;BME280;15183;51.350;11.102;2023-04-19T05:17:40;101013.25;;;10.49;56.17
27805;BME280;15183;51.350;11.102;2023-04-19T05:20:08;100990.75;;;10.38;56.66
27805;BME280;15183;51.350;11.102;2023-04-19T05:22:35;101011.31;;;10.65;56.59
27805;BME280;15183;51.350;11.102;2023-04-19T05:25:01;100995.41;;;10.65;56.03
27805;BME280;15183;51.350;11.102;2023-04-19T05:27:27;101008.53;;;10.86;56.08
27805;BME280;15183;51.350;11.102;2023-04-19T05:29:54;101010.63;;;10.98;55.97
27805;BME280;15183;51.350;11.102;2023-04-19T05:32:20;100971.25;;;10.95;56.08
27805;BME280;15183;51.350;11.102;2023-04-19T05:34:47;101012.78;;;11.43;56.30
27805;BME280;15183;51.350;11.102;2023-04-19T05:37:13;100959.88;;;11.14;55.31
27805;BME280;15183;51.350;11.102;2023-04-19T05:39:39;100988.50;;;11.46;54.99
27805;BME280;15183;51.350;11.102;2023-04-19T05:42:06;100998.50;;;11.51;54.80
27805;BME280;15183;51.350;11.102;2023-04-19T05:44:32;100988.09;;;11.49;54.21
27805;BME280;15183;51.350;11.102;2023-04-19T05:46:59;100991.34;;;11.51;53.46
27805;BME280;15183;51.350;11.102;2023-04-19T05:49:25;101008.31;;;11.57;53.31
27805;BME280;15183;51.350;11.102;2023-04-19T05:51:52;101009.94;;;11.44;53.39
27805;BME280;15183;51.350;11.102;2023-04-19T05:54:20;100992.13;;;11.25;52.54
27805;BME280;15183;51.350;11.102;2023-04-19T05:56:46;100978.22;;;11.09;52.56
27805;BME280;15183;51.350;11.102;2023-04-19T05:59:13;100956.75;;;10.91;52.59
27805;BME280;15183;51.350;11.102;2023-04-19T06:01:39;101010.06;;;11.16;52.64
27805;BME280;15183;51.350;11.102;2023-04-19T06:04:06;101009.03;;;11.10;52.06
27805;BME280;15183;51.350;11.102;2023-04-19T06:06:32;100988.41;;;10.99;51.78
27805;BME280;15183;51.350;11.102;2023-04-19T06:09:51;100997.13;;;10.93;51.21
27805;BME280;15183;51.350;11.102;2023-04-19T06:12:18;100986.84;;;10.69;51.51
27805;BME280;15183;51.350;11.102;2023-04-19T06:14:44;100994.22;;;10.74;51.65
27805;BME280;15183;51.350;11.102;2023-04-19T06:17:11;100994.63;;;10.71;52.02
27805;BME280;15183;51.350;11.102;2023-04-19T06:19:37;100990.34;;;10.70;51.49
27805;BME280;15183;51.350;11.102;2023-04-19T06:22:04;101008.28;;;10.75;51.35
27805;BME280;15183;51.350;11.102;2023-04-19T06:24:30;100992.16;;;10.63;51.00
27805;BME280;15183;51.350;11.102;2023-04-19T06:26:57;100988.22;;;10.59;50.54
27805;BME280;15183;51.350;11.102;2023-04-19T06:29:23;101012.56;;;10.69;51.02
27805;BME280;15183;51.350;11.102;2023-04-19T06:31:50;101032.75;;;10.70;50.78
27805;BME280;15183;51.350;11.102;2023-04-19T06:34:17;100924.59;;;10.10;50.90
27805;BME280;15183;51.350;11.102;2023-04-19T06:36:52;101002.31;;;10.59;50.88
27805;BME280;15183;51.350;11.102;2023-04-19T06:39:19;101008.81;;;10.56;50.87
27805;BME280;15183;51.350;11.102;2023-04-19T06:41:45;100995.38;;;10.58;51.28
27805;BME280;15183;51.350;11.102;2023-04-19T06:44:12;101022.31;;;10.68;51.27
27805;BME280;15183;51.350;11.102;2023-04-19T06:46:39;101026.88;;;10.81;51.95
27805;BME280;15183;51.350;11.102;2023-04-19T06:49:05;101015.91;;;10.98;52.41
27805;BME280;15183;51.350;11.102;2023-04-19T06:51:32;100979.09;;;11.23;53.12
27805;BME280;15183;51.350;11.102;2023-04-19T06:53:59;101021.81;;;11.96;53.35
27805;BME280;15183;51.350;11.102;2023-04-19T06:56:43;100997.09;;;12.22;51.95
27805;BME280;15183;51.350;11.102;2023-04-19T06:59:16;101011.28;;;12.62;51.45
27805;BME280;15183;51.350;11.102;2023-04-19T07:01:45;100981.03;;;12.63;51.55
27805;BME280;15183;51.350;11.102;2023-04-19T07:04:12;101000.09;;;12.98;51.31
27805;BME280;15183;51.350;11.102;2023-04-19T07:06:39;100976.53;;;13.02;51.17
27805;BME280;15183;51.350;11.102;2023-04-19T07:09:06;101007.63;;;13.40;49.84
27805;BME280;15183;51.350;11.102;2023-04-19T07:11:33;100996.75;;;13.42;49.47
27805;BME280;15183;51.350;11.102;2023-04-19T07:14:00;101002.50;;;13.39;48.90
27805;BME280;15183;51.350;11.102;2023-04-19T07:16:27;101020.50;;;13.50;48.52
27805;BME280;15183;51.350;11.102;2023-04-19T07:18:53;101015.97;;;13.51;47.89
27805;BME280;15183;51.350;11.102;2023-04-19T07:21:20;100988.16;;;13.40;47.30
27805;BME280;15183;51.350;11.102;2023-04-19T07:23:46;101007.56;;;13.54;46.25
27805;BME280;15183;51.350;11.102;2023-04-19T07:26:13;100989.00;;;13.47;46.90
27805;BME280;15183;51.350;11.102;2023-04-19T07:28:40;101000.53;;;13.66;47.02
27805;BME280;15183;51.350;11.102;2023-04-19T07:31:06;100999.41;;;13.74;47.57
27805;BME280;15183;51.350;11.102;2023-04-19T07:33:33;100977.22;;;13.80;47.04
27805;BME280;15183;51.350;11.102;2023-04-19T07:35:59;100970.63;;;13.89;45.36
27805;BME280;15183;51.350;11.102;2023-04-19T07:38:26;100907.50;;;13.39;46.68
27805;BME280;15183;51.350;11.102;2023-04-19T07:40:52;100992.44;;;13.98;47.14
27805;BME280;15183;51.350;11.102;2023-04-19T07:43:18;100958.84;;;13.97;46.50
27805;BME280;15183;51.350;11.102;2023-04-19T07:45:45;100984.88;;;14.21;46.84
27805;BME280;15183;51.350;11.102;2023-04-19T07:48:11;100958.38;;;14.26;47.75
27805;BME280;15183;51.350;11.102;2023-04-19T07:50:38;100979.75;;;14.56;47.22
27805;BME280;15183;51.350;11.102;2023-04-19T07:53:04;100982.69;;;14.67;46.99
27805;BME280;15183;51.350;11.102;2023-04-19T07:55:30;100986.88;;;14.81;46.50
27805;BME280;15183;51.350;11.102;2023-04-19T07:57:57;100964.13;;;14.79;46.12
27805;BME280;15183;51.350;11.102;2023-04-19T08:00:23;100984.75;;;15.02;45.63
27805;BME280;15183;51.350;11.102;2023-04-19T08:02:50;100889.75;;;14.52;45.78
27805;BME280;15183;51.350;11.102;2023-04-19T08:05:17;100953.41;;;15.09;46.31
27805;BME280;15183;51.350;11.102;2023-04-19T08:07:43;100972.19;;;15.33;46.10
27805;BME280;15183;51.350;11.102;2023-04-19T08:10:11;100949.09;;;15.39;44.47
27805;BME280;15183;51.350;11.102;2023-04-19T08:16:19;100929.09;;;15.29;42.23
27805;BME280;15183;51.350;11.102;2023-04-19T08:18:45;100948.72;;;15.35;42.10
27805;BME280;15183;51.350;11.102;2023-04-19T08:21:13;100933.75;;;15.34;41.60
27805;BME280;15183;51.350;11.102;2023-04-19T08:23:40;100947.81;;;15.41;41.13
27805;BME280;15183;51.350;11.102;2023-04-19T08:26:06;100861.94;;;14.90;40.84
27805;BME280;15183;51.350;11.102;2023-04-19T08:28:32;100932.72;;;15.47;40.49
27805;BME280;15183;51.350;11.102;2023-04-19T08:30:59;100918.31;;;15.36;41.10
27805;BME280;15183;51.350;11.102;2023-04-19T08:33:27;100931.44;;;15.49;40.40
27805;BME280;15183;51.350;11.102;2023-04-19T08:35:53;100937.72;;;15.43;41.15
27805;BME280;15183;51.350;11.102;2023-04-19T08:38:19;100859.41;;;14.95;41.18
27805;BME280;15183;51.350;11.102;2023-04-19T08:40:51;100942.59;;;15.46;41.55
27805;BME280;15183;51.350;11.102;2023-04-19T08:43:19;100914.03;;;15.35;41.69
27805;BME280;15183;51.350;11.102;2023-04-19T08:45:47;100897.06;;;15.41;39.61
27805;BME280;15183;51.350;11.102;2023-04-19T08:48:15;100906.03;;;15.47;40.59
27805;BME280;15183;51.350;11.102;2023-04-19T08:50:43;100894.50;;;15.46;40.14
27805;BME280;15183;51.350;11.102;2023-04-19T08:53:11;100931.94;;;15.70;39.51
27805;BME280;15183;51.350;11.102;2023-04-19T08:55:41;100914.03;;;15.59;40.06
27805;BME280;15183;51.350;11.102;2023-04-19T08:58:08;100895.94;;;15.61;38.93
27805;BME280;15183;51.350;11.102;2023-04-19T09:00:38;100905.31;;;15.52;38.67
27805;BME280;15183;51.350;11.102;2023-04-19T09:03:06;100901.25;;;15.49;38.72
27805;BME280;15183;51.350;11.102;2023-04-19T09:05:33;100904.97;;;15.36;39.31
27805;BME280;15183;51.350;11.102;2023-04-19T09:08:25;100908.56;;;15.42;39.31
27805;BME280;15183;51.350;11.102;2023-04-19T09:10:57;100901.13;;;15.32;37.70
27805;BME280;15183;51.350;11.102;2023-04-19T09:13:25;100884.88;;;15.22;38.77
27805;BME280;15183;51.350;11.102;2023-04-19T09:15:52;100900.53;;;15.30;39.05
27805;BME280;15183;51.350;11.102;2023-04-19T09:18:19;100888.34;;;15.34;38.60
27805;BME280;15183;51.350;11.102;2023-04-19T09:20:45;100885.09;;;15.32;38.93
27805;BME280;15183;51.350;11.102;2023-04-19T09:23:17;100891.41;;;15.38;38.78
27805;BME280;15183;51.350;11.102;2023-04-19T09:26:00;100864.91;;;15.36;39.09
27805;BME280;15183;51.350;11.102;2023-04-19T09:28:27;100887.81;;;15.56;38.50
27805;BME280;15183;51.350;11.102;2023-04-19T09:30:55;100889.06;;;15.53;37.64
27805;BME280;15183;51.350;11.102;2023-04-19T09:33:35;100898.47;;;15.44;37.39
27805;BME280;15183;51.350;11.102;2023-04-19T09:36:05;100873.47;;;15.26;37.72
27805;BME280;15183;51.350;11.102;2023-04-19T09:38:52;100860.84;;;15.22;38.24
27805;BME280;15183;51.350;11.102;2023-04-19T09:41:19;100861.28;;;15.07;40.07
27805;BME280;15183;51.350;11.102;2023-04-19T09:43:45;100866.53;;;15.25;39.97
27805;BME280;15183;51.350;11.102;2023-04-19T09:46:35;100851.09;;;15.39;39.17
27805;BME280;15183;51.350;11.102;2023-04-19T09:51:55;100863.28;;;15.59;39.35
27805;BME280;15183;51.350;11.102;2023-04-19T09:54:25;100867.44;;;15.67;39.57
27805;BME280;15183;51.350;11.102;2023-04-19T09:56:57;100857.59;;;15.67;39.16
27805;BME280;15183;51.350;11.102;2023-04-19T09:59:23;100839.56;;;15.62;38.70
27805;BME280;15183;51.350;11.102;2023-04-19T10:01:54;100843.66;;;15.65;39.00
27805;BME280;15183;51.350;11.102;2023-04-19T10:04:21;100854.78;;;15.74;38.71
27805;BME280;15183;51.350;11.102;2023-04-19T10:06:50;100859.31;;;15.73;38.47
27805;BME280;15183;51.350;11.102;2023-04-19T10:09:19;100822.28;;;15.53;38.16
27805;BME280;15183;51.350;11.102;2023-04-19T10:11:53;100852.47;;;15.66;37.69
27805;BME280;15183;51.350;11.102;2023-04-19T10:17:55;100829.34;;;15.59;38.33
27805;BME280;15183;51.350;11.102;2023-04-19T10:20:54;100857.34;;;15.69;38.59
27805;BME280;15183;51.350;11.102;2023-04-19T10:23:22;100828.19;;;15.67;38.05
27805;BME280;15183;51.350;11.102;2023-04-19T10:25:55;100837.94;;;15.73;37.02
27805;BME280;15183;51.350;11.102;2023-04-19T10:28:22;100804.16;;;15.55;37.04
27805;BME280;15183;51.350;11.102;2023-04-19T10:31:01;100814.75;;;15.62;37.85
27805;BME280;15183;51.350;11.102;2023-04-19T10:33:36;100817.50;;;15.67;38.00
27805;BME280;15183;51.350;11.102;2023-04-19T10:36:03;100828.41;;;15.77;37.01
27805;BME280;15183;51.350;11.102;2023-04-19T10:38:42;100776.97;;;15.70;37.35
27805;BME280;15183;51.350;11.102;2023-04-19T10:41:10;100793.28;;;15.86;37.58
27805;BME280;15183;51.350;11.102;2023-04-19T10:43:37;100782.28;;;15.94;36.99
27805;BME280;15183;51.350;11.102;2023-04-19T10:46:37;100812.25;;;15.96;37.65
27805;BME280;15183;51.350;11.102;2023-04-19T10:49:05;100795.25;;;16.02;36.84
27805;BME280;15183;51.350;11.102;2023-04-19T10:54:01;100796.28;;;16.13;36.15
27805;BME280;15183;51.350;11.102;2023-04-19T11:01:44;100783.56;;;16.20;36.81
27805;BME280;15183;51.350;11.102;2023-04-19T11:04:17;100780.84;;;16.32;36.85
27805;BME280;15183;51.350;11.102;2023-04-19T11:14:32;100783.75;;;16.31;35.24
27805;BME280;15183;51.350;11.102;2023-04-19T11:20:02;100770.25;;;16.09;36.55
27805;BME280;15183;51.350;11.102;2023-04-19T11:22:45;100755.81;;;16.10;35.58
27805;BME280;15183;51.350;11.102;2023-04-19T11:25:20;100766.47;;;16.22;36.30
27805;BME280;15183;51.350;11.102;2023-04-19T11:27:50;100754.56;;;16.29;35.26
27805;BME280;15183;51.350;11.102;2023-04-19T11:30:28;100746.38;;;16.36;36.81
27805;BME280;15183;51.350;11.102;2023-04-19T11:32:56;100744.25;;;16.21;35.95
27805;BME280;15183;51.350;11.102;2023-04-19T11:35:28;100753.41;;;16.25;36.09
27805;BME280;15183;51.350;11.102;2023-04-19T11:37:58;100756.50;;;16.34;36.21
27805;BME280;15183;51.350;11.102;2023-04-19T11:40:25;100732.88;;;16.43;36.30
27805;BME280;15183;51.350;11.102;2023-04-19T11:43:00;100741.28;;;16.34;36.08
27805;BME280;15183;51.350;11.102;2023-04-19T11:45:32;100743.13;;;16.17;35.33
27805;BME280;15183;51.350;11.102;2023-04-19T11:48:00;100742.03;;;16.01;36.06
27805;BME280;15183;51.350;11.102;2023-04-19T11:50:38;100745.91;;;15.93;37.12
27805;BME280;15183;51.350;11.102;2023-04-19T11:53:22;100717.56;;;15.92;37.46
27805;BME280;15183;51.350;11.102;2023-04-19T11:56:04;100735.91;;;16.17;36.96
27805;BME280;15183;51.350;11.102;2023-04-19T11:58:41;100726.78;;;16.30;37.61
27805;BME280;15183;51.350;11.102;2023-04-19T12:01:12;100713.22;;;16.37;35.98
27805;BME280;15183;51.350;11.102;2023-04-19T12:03:52;100718.03;;;16.52;36.82
27805;BME280;15183;51.350;11.102;2023-04-19T12:06:25;100707.25;;;16.47;35.36
27805;BME280;15183;51.350;11.102;2023-04-19T12:08:54;100732.78;;;16.55;35.57
27805;BME280;15183;51.350;11.102;2023-04-19T12:11:25;100712.25;;;16.43;35.09
27805;BME280;15183;51.350;11.102;2023-04-19T12:14:12;100721.69;;;16.46;35.10
27805;BME280;15183;51.350;11.102;2023-04-19T12:16:38;100692.03;;;16.30;34.95
27805;BME280;15183;51.350;11.102;2023-04-19T12:19:17;100714.22;;;16.48;34.27
27805;BME280;15183;51.350;11.102;2023-04-19T12:21:44;100692.97;;;16.41;33.75
27805;BME280;15183;51.350;11.102;2023-04-19T12:27:53;100707.94;;;16.76;33.27
27805;BME280;15183;51.350;11.102;2023-04-19T12:30:19;100686.47;;;16.71;32.91
27805;BME280;15183;51.350;11.102;2023-04-19T12:32:46;100689.66;;;16.68;32.59
27805;BME280;15183;51.350;11.102;2023-04-19T12:35:12;100695.56;;;16.53;32.80
27805;BME280;15183;51.350;11.102;2023-04-19T12:37:38;100691.75;;;16.49;32.84
27805;BME280;15183;51.350;11.102;2023-04-19T12:40:06;100670.28;;;16.44;32.64
27805;BME280;15183;51.350;11.102;2023-04-19T12:42:32;100616.16;;;16.19;33.04
27805;BME280;15183;51.350;11.102;2023-04-19T12:44:59;100664.28;;;16.71;34.49
27805;BME280;15183;51.350;11.102;2023-04-19T12:47:26;100650.31;;;16.69;33.81
27805;BME280;15183;51.350;11.102;2023-04-19T12:49:52;100674.00;;;16.77;34.02
27805;BME280;15183;51.350;11.102;2023-04-19T12:52:21;100666.38;;;16.69;33.65
27805;BME280;15183;51.350;11.102;2023-04-19T12:54:48;100667.03;;;16.59;33.99
27805;BME280;15183;51.350;11.102;2023-04-19T12:57:14;100651.16;;;16.52;35.07
27805;BME280;15183;51.350;11.102;2023-04-19T12:59:41;100631.19;;;16.60;35.09
27805;BME280;15183;51.350;11.102;2023-04-19T13:02:07;100616.66;;;16.73;35.24
27805;BME280;15183;51.350;11.102;2023-04-19T13:04:34;100640.41;;;17.09;35.06
27805;BME280;15183;51.350;11.102;2023-04-19T13:07:01;100634.38;;;17.18;33.54
27805;BME280;15183;51.350;11.102;2023-04-19T13:09:27;100618.56;;;17.17;33.15
27805;BME280;15183;51.350;11.102;2023-04-19T13:11:54;100614.03;;;17.17;33.69
27805;BME280;15183;51.350;11.102;2023-04-19T13:14:21;100570.63;;;16.93;33.57
27805;BME280;15183;51.350;11.102;2023-04-19T13:16:47;100619.50;;;17.28;33.02
27805;BME280;15183;51.350;11.102;2023-04-19T13:19:14;100613.19;;;17.17;33.26